ETHF/FRZ METAR and TAF weather

Enter ICAO airport designator
Station Type Date Time Source
ETHF METAR 2022/01/25 04:48 UTC NOAA

ETHF 250448Z 28004KT 9999 OVC006 02/00 Q1032 YLO


Station Type Date Time Source
ETHF Decoded METAR 2022/01/25 04:48 UTC NOAA

Fritzlar, Germany (ETHF) 51-07N 009-17E 181M
Jan 24, 2022 - 11:48 PM EST / 2022.01.25 0448 UTC
Wind: from the W (280 degrees) at 5 MPH (4 KT):0
Visibility: greater than 7 mile(s):0
Sky conditions: overcast
Temperature: 35 F (2 C)
Windchill: 30 F (-1 C):1
Dew Point: 32 F (0 C)
Relative Humidity: 86%
Pressure (altimeter): 30.47 in. Hg (1032 hPa)
ob: ETHF 250448Z 28004KT 9999 OVC006 02/00 Q1032 YLO
cycle: 5

Station Type Date Time Source
ETHF TAF 2020/09/07 12:21 UTC NOAA

TAF ETHF 071611Z 0712/0802 VRB02KT 9999 NSW FEW030 PROB30 0723/0802 VRB01KT 5000 MIFG SKC

Example: see airport list